Time;durP1;ratioP1;P1;durP2;ratioP2;P2;SDS_P1;SDS_P2;PMS_P1;PMS_P2;Temp;Humidity;BMP_temperature;BMP_pressure;BME280_temperature;BME280_humidity;BME280_pressure;Samples;Min_cycle;Max_cycle;Signal;HPM_P1;HPM_P2
2021/12/21 00:00:43;;;;;;;16.07;8.93;;;;;;;-0.49;65.61;99950.56;5072680;28;20606;-67
2021/12/21 00:03:10;;;;;;;15.40;8.00;;;;;;;-0.57;65.50;99953.66;5066621;28;20232;-67
2021/12/21 00:05:38;;;;;;;11.97;8.00;;;;;;;-0.94;66.28;99928.88;5072351;28;20235;-67
2021/12/21 00:08:09;;;;;;;18.13;7.97;;;;;;;-1.13;66.62;99926.47;5072386;28;20238;-67
2021/12/21 00:10:37;;;;;;;13.63;8.10;;;;;;;-0.38;65.34;99939.41;5062693;28;20496;-67
2021/12/21 00:13:08;;;;;;;14.57;8.17;;;;;;;-0.73;65.71;99932.81;5051029;28;20235;-68
2021/12/21 00:15:48;;;;;;;16.17;7.47;;;;;;;-0.76;66.20;99935.63;5052695;28;20241;-65
2021/12/21 00:21:34;;;;;;;13.70;8.00;;;;;;;-0.64;65.84;99935.78;5038801;28;20235;-68
2021/12/21 00:24:10;;;;;;;16.97;8.03;;;;;;;-0.41;64.82;99943.03;5072011;28;20632;-67
2021/12/21 00:26:37;;;;;;;12.13;7.50;;;;;;;-1.04;66.56;99920.75;5070487;28;20784;-68
2021/12/21 00:29:05;;;;;;;16.40;8.40;;;;;;;-0.82;65.69;99922.06;5072496;28;20235;-67
2021/12/21 00:31:35;;;;;;;13.77;7.83;;;;;;;-0.79;66.27;99927.13;5071893;28;20231;-67
2021/12/21 00:34:06;;;;;;;16.13;7.80;;;;;;;-0.67;65.87;99932.41;5071225;28;20246;-67
2021/12/21 00:36:35;;;;;;;14.07;8.07;;;;;;;-0.95;66.39;99911.47;5071509;28;20553;-67
2021/12/21 00:39:07;;;;;;;13.67;6.83;;;;;;;-0.87;66.14;99917.94;5071999;28;20231;-67
2021/12/21 00:41:34;;;;;;;19.80;9.60;;;;;;;-0.56;65.12;99925.66;5072220;28;20636;-67
2021/12/21 00:44:01;;;;;;;11.83;7.33;;;;;;;-0.99;66.67;99915.22;5070697;28;20242;-67
2021/12/21 00:46:28;;;;;;;13.93;8.23;;;;;;;-1.01;66.22;99901.38;5072149;28;20608;-67
2021/12/21 00:49:01;;;;;;;14.53;8.27;;;;;;;-1.13;66.77;99903.78;5071072;28;20741;-67
2021/12/21 00:51:28;;;;;;;15.87;7.77;;;;;;;-1.05;66.48;99906.78;5072299;28;20288;-66
2021/12/21 00:53:55;;;;;;;17.20;7.80;;;;;;;-0.66;65.38;99917.53;5071661;28;20241;-66
2021/12/21 00:56:22;;;;;;;14.10;7.70;;;;;;;-0.37;64.81;99920.97;5071192;28;20224;-66
2021/12/21 00:58:49;;;;;;;14.97;8.33;;;;;;;-1.14;66.51;99894.25;5071764;28;20249;-67
2021/12/21 01:01:16;;;;;;;14.93;7.57;;;;;;;-1.09;66.27;99886.13;5070691;28;20230;-66
2021/12/21 01:03:48;;;;;;;16.20;7.40;;;;;;;-0.60;65.09;99895.38;5070009;28;20245;-66
2021/12/21 01:11:39;;;;;;;15.47;8.47;;;;;;;-0.17;64.06;99910.97;5030963;28;20250;-67
2021/12/21 01:17:05;;;;;;;14.60;7.57;;;;;;;-0.36;63.76;99888.53;5050750;28;20729;-66
2021/12/21 01:19:40;;;;;;;18.93;9.03;;;;;;;-1.05;66.10;99882.34;5051241;28;20732;-66
2021/12/21 01:27:29;;;;;;;16.03;8.13;;;;;;;-0.50;64.68;99905.16;5071081;28;20235;-66
2021/12/21 01:30:13;;;;;;;14.83;7.53;;;;;;;-1.00;66.07;99888.19;5071411;28;20234;-66
2021/12/21 01:35:15;;;;;;;16.37;7.77;;;;;;;-0.78;65.68;99906.03;5071154;28;20301;-66
2021/12/21 01:51:11;;;;;;;9.00;6.80;;;;;;;-0.79;64.65;99903.53;5070829;28;20233;-66
2021/12/21 01:53:40;;;;;;;15.43;7.50;;;;;;;-0.81;64.51;99901.00;5070261;28;20772;-66
2021/12/21 01:56:08;;;;;;;14.23;7.60;;;;;;;-0.92;64.58;99890.34;5070365;28;20438;-66
2021/12/21 01:58:37;;;;;;;10.07;6.50;;;;;;;-1.10;65.21;99887.03;5070390;28;20484;-66
2021/12/21 02:01:09;;;;;;;14.57;7.17;;;;;;;-0.88;64.56;99903.16;5070446;28;20232;-66
2021/12/21 02:03:37;;;;;;;12.33;6.47;;;;;;;-1.34;65.48;99879.72;5067495;28;20230;-66
2021/12/21 02:06:05;;;;;;;10.13;6.30;;;;;;;-0.75;64.80;99908.47;5069618;28;20241;-67
2021/12/21 02:08:32;;;;;;;12.87;7.23;;;;;;;-1.10;65.30;99880.03;5069727;28;20260;-66
2021/12/21 02:11:03;;;;;;;11.07;6.70;;;;;;;-1.07;64.72;99877.22;5059481;28;20238;-66
2021/12/21 02:13:35;;;;;;;12.10;7.47;;;;;;;-1.05;65.19;99885.84;5050038;28;20238;-67
2021/12/21 02:16:06;;;;;;;11.70;6.97;;;;;;;-1.08;64.79;99874.72;5051521;28;20228;-66
2021/12/21 02:21:24;;;;;;;10.93;6.60;;;;;;;-1.81;66.70;99855.47;5069023;28;20445;-66
2021/12/21 02:23:54;;;;;;;11.57;7.13;;;;;;;-1.83;67.39;99866.94;5069287;28;20237;-66
2021/12/21 02:29:10;;;;;;;10.67;7.40;;;;;;;-2.09;67.36;99847.53;5068957;28;20237;-66
2021/12/21 02:31:39;;;;;;;11.17;6.67;;;;;;;-1.85;66.87;99855.75;5067658;28;20233;-66
2021/12/21 02:34:10;;;;;;;12.40;6.67;;;;;;;-1.78;66.45;99860.50;5069842;28;20230;-66
2021/12/21 02:36:41;;;;;;;14.70;7.33;;;;;;;-1.43;66.04;99878.50;5068628;28;20257;-66
2021/12/21 02:39:12;;;;;;;10.27;7.00;;;;;;;-1.26;65.40;99884.53;5069042;28;20248;-66
2021/12/21 02:41:40;;;;;;;13.97;6.90;;;;;;;-1.66;65.54;99860.72;5069940;28;20708;-66
2021/12/21 02:44:07;;;;;;;13.50;6.93;;;;;;;-1.67;65.79;99875.59;5068990;28;20234;-66
2021/12/21 02:46:34;;;;;;;13.03;7.30;;;;;;;-1.29;65.26;99874.22;5068682;28;20244;-66
2021/12/21 02:49:02;;;;;;;12.37;6.73;;;;;;;-1.10;64.47;99877.44;5068744;28;20595;-66
2021/12/21 02:51:29;;;;;;;11.43;6.63;;;;;;;-1.68;65.93;99867.81;5066091;28;20230;-66
2021/12/21 02:53:56;;;;;;;8.33;6.13;;;;;;;-1.62;66.00;99868.31;5065857;28;20308;-66
2021/12/21 02:56:23;;;;;;;11.97;6.83;;;;;;;-1.55;66.09;99871.41;5067966;28;20241;-66
2021/12/21 02:58:50;;;;;;;11.00;6.83;;;;;;;-1.45;65.56;99872.53;5069133;28;20254;-66
2021/12/21 03:01:17;;;;;;;11.70;6.27;;;;;;;-0.87;64.17;99888.28;5068403;28;20228;-66
2021/12/21 03:03:44;;;;;;;11.90;6.63;;;;;;;-1.10;64.24;99861.72;5067402;28;20227;-66
2021/12/21 03:06:32;;;;;;;13.07;6.30;;;;;;;-1.76;66.11;99851.72;5069059;28;20231;-65
2021/12/21 03:08:59;;;;;;;12.03;7.17;;;;;;;-1.07;64.84;99877.22;5057682;28;20253;-66
2021/12/21 03:14:24;;;;;;;14.50;7.17;;;;;;;-0.84;64.14;99879.41;5035188;28;20238;-66
2021/12/21 03:16:53;;;;;;;9.67;6.40;;;;;;;-1.17;64.54;99857.78;5049065;28;20584;-66
2021/12/21 03:19:20;;;;;;;10.80;6.50;;;;;;;-1.53;65.08;99832.91;5048711;28;20234;-67
2021/12/21 03:21:47;;;;;;;8.90;6.30;;;;;;;-1.54;64.18;99830.38;5068516;22;20235;-62
2021/12/21 03:24:14;;;;;;;11.23;7.30;;;;;;;-1.47;65.28;99835.16;5065960;28;20593;-62
2021/12/21 03:26:41;;;;;;;11.53;6.37;;;;;;;-0.98;63.75;99856.66;5066930;28;20241;-65
2021/12/21 03:29:08;;;;;;;11.50;6.57;;;;;;;-0.73;62.98;99859.47;5068224;28;20235;-65
2021/12/21 03:31:35;;;;;;;12.03;7.03;;;;;;;-0.93;63.26;99857.22;5067343;28;20490;-65
2021/12/21 03:34:03;;;;;;;12.67;6.60;;;;;;;-1.07;64.14;99858.06;5067538;28;20231;-64
2021/12/21 03:36:30;;;;;;;13.47;7.17;;;;;;;-1.61;65.09;99833.34;5027074;28;20223;-65
2021/12/21 03:39:05;;;;;;;9.53;6.37;;;;;;;-1.00;63.63;99859.38;5027953;28;20740;-65
2021/12/21 03:41:34;;;;;;;11.43;7.47;;;;;;;-1.38;65.28;99848.63;5028081;28;20239;-65
2021/12/21 03:44:03;;;;;;;16.20;7.67;;;;;;;-0.78;63.06;99856.25;5027029;28;20234;-65
2021/12/21 03:46:33;;;;;;;13.17;6.40;;;;;;;-1.51;64.00;99823.19;5025956;28;20231;-65
2021/12/21 03:49:11;;;;;;;9.80;7.07;;;;;;;-0.54;62.58;99866.13;5038308;28;20231;-65
2021/12/21 03:51:38;;;;;;;14.23;6.93;;;;;;;-1.50;64.30;99822.25;5047100;28;20235;-65
2021/12/21 03:54:05;;;;;;;10.47;6.87;;;;;;;-1.69;64.89;99826.91;5064991;28;20227;-65
2021/12/21 03:58:58;;;;;;;12.77;6.77;;;;;;;-1.32;63.90;99835.97;5068099;28;20227;-65
2021/12/21 04:01:26;;;;;;;9.70;6.83;;;;;;;-1.40;64.29;99833.00;5065798;28;20237;-65
2021/12/21 04:03:53;;;;;;;13.73;7.27;;;;;;;-2.04;66.10;99814.97;5067095;28;20237;-65
2021/12/21 04:06:20;;;;;;;13.70;7.23;;;;;;;-1.13;64.20;99850.56;5054104;28;20602;-65
2021/12/21 04:08:47;;;;;;;11.53;6.97;;;;;;;-1.30;63.89;99835.88;5046757;28;20228;-64
2021/12/21 04:11:14;;;;;;;12.53;6.73;;;;;;;-1.84;65.30;99823.41;5049524;28;20247;-65
2021/12/21 04:13:41;;;;;;;10.77;6.93;;;;;;;-1.68;65.04;99815.50;5050686;28;20745;-65
2021/12/21 04:16:08;;;;;;;14.00;6.57;;;;;;;-1.78;65.38;99812.59;5050626;28;20886;-64
2021/12/21 04:18:37;;;;;;;14.00;6.60;;;;;;;-2.21;66.39;99791.56;5050724;28;20703;-65
2021/12/21 04:21:06;;;;;;;15.57;6.93;;;;;;;-1.72;65.49;99827.94;5050998;28;20252;-65
2021/12/21 04:23:33;;;;;;;12.53;6.73;;;;;;;-1.29;64.08;99832.34;5051692;28;20222;-65
2021/12/21 04:26:00;;;;;;;14.40;6.73;;;;;;;-1.30;64.19;99836.75;5051033;28;20234;-65
2021/12/21 04:28:27;;;;;;;11.23;6.60;;;;;;;-1.36;64.35;99831.88;5050878;28;20238;-65
2021/12/21 04:30:54;;;;;;;11.33;6.67;;;;;;;-1.55;65.29;99826.94;5050781;28;20236;-65
2021/12/21 04:33:21;;;;;;;12.27;7.13;;;;;;;-1.92;65.36;99816.03;5048964;28;20228;-65
2021/12/21 04:35:48;;;;;;;12.23;7.80;;;;;;;-1.55;64.89;99820.84;5051291;28;20230;-73
2021/12/21 04:38:23;;;;;;;9.80;6.30;;;;;;;-2.26;66.22;99796.22;5052067;28;20240;-64
2021/12/21 04:40:57;;;;;;;9.53;6.63;;;;;;;-1.71;65.05;99818.31;5062498;28;20243;-65
2021/12/21 04:43:24;;;;;;;12.10;8.30;;;;;;;-1.68;64.61;99807.66;5058825;28;20225;-64
2021/12/21 04:45:51;;;;;;;11.50;6.60;;;;;;;-1.81;65.71;99818.00;5062735;28;20233;-65
2021/12/21 04:48:18;;;;;;;10.80;6.33;;;;;;;-1.94;65.87;99809.19;5048019;28;20691;-64
2021/12/21 04:50:46;;;;;;;11.30;7.57;;;;;;;-1.87;65.52;99808.75;5063202;28;20729;-65
2021/12/21 04:53:13;;;;;;;11.30;6.33;;;;;;;-1.65;64.83;99820.56;5071404;28;20227;-65
2021/12/21 04:55:40;;;;;;;12.27;6.93;;;;;;;-1.68;65.48;99818.97;5057839;28;20227;-65
2021/12/21 04:58:07;;;;;;;10.67;6.57;;;;;;;-1.83;65.86;99815.47;5049595;28;20219;-65
2021/12/21 05:00:35;;;;;;;7.93;6.70;;;;;;;-1.38;64.67;99828.53;5049953;28;20242;-65
2021/12/21 05:03:02;;;;;;;12.23;6.73;;;;;;;-1.84;65.47;99816.44;5050297;28;20242;-64
2021/12/21 05:05:29;;;;;;;12.60;6.67;;;;;;;-2.37;67.36;99796.84;5050307;28;20229;-65
2021/12/21 05:08:11;;;;;;;12.90;7.50;;;;;;;-2.14;66.25;99795.53;5050170;28;20226;-65
2021/12/21 05:10:51;;;;;;;12.90;6.43;;;;;;;-2.17;66.53;99796.53;5050112;28;20237;-65
2021/12/21 05:13:20;;;;;;;13.30;7.50;;;;;;;-2.20;66.02;99795.88;5048994;28;20230;-65
2021/12/21 05:15:47;;;;;;;13.03;6.80;;;;;;;-2.40;66.85;99786.56;5062840;28;20315;-64
2021/12/21 05:18:16;;;;;;;16.50;7.63;;;;;;;-2.24;66.86;99804.84;5070288;28;20234;-64
2021/12/21 05:20:43;;;;;;;12.43;7.80;;;;;;;-2.27;66.73;99803.22;5064283;28;20222;-64
2021/12/21 05:23:11;;;;;;;10.93;7.43;;;;;;;-2.09;66.61;99814.41;5053538;28;20231;-64
2021/12/21 05:25:39;;;;;;;13.73;7.57;;;;;;;-2.30;67.35;99806.00;5066913;28;20243;-64
2021/12/21 05:28:09;;;;;;;10.90;7.10;;;;;;;-2.23;66.87;99806.50;5067131;28;20721;-65
2021/12/21 05:30:36;;;;;;;15.27;7.37;;;;;;;-1.90;66.02;99815.94;5048011;28;20225;-64
2021/12/21 05:33:05;;;;;;;14.17;7.80;;;;;;;-2.12;66.69;99809.34;5049842;28;20238;-64
2021/12/21 05:35:34;;;;;;;14.33;7.87;;;;;;;-1.93;65.58;99811.72;5049529;28;20253;-65
2021/12/21 05:38:04;;;;;;;13.20;7.80;;;;;;;-2.00;65.59;99797.34;5063542;28;20220;-64
2021/12/21 05:40:36;;;;;;;12.17;7.00;;;;;;;-1.96;65.96;99798.81;5069008;28;20409;-65
2021/12/21 05:43:04;;;;;;;11.60;7.40;;;;;;;-2.17;66.22;99791.31;5068047;28;20730;-64
2021/12/21 05:45:31;;;;;;;14.17;7.13;;;;;;;-2.23;66.62;99791.69;5069294;28;20228;-64
2021/12/21 05:47:59;;;;;;;13.33;7.03;;;;;;;-2.41;66.94;99790.13;5065572;28;20219;-64
2021/12/21 05:50:26;;;;;;;10.70;7.33;;;;;;;-1.90;66.06;99813.34;5049526;28;20236;-65
2021/12/21 05:52:53;;;;;;;15.47;8.03;;;;;;;-2.25;66.39;99785.69;5049702;28;20231;-64
2021/12/21 05:55:21;;;;;;;11.43;7.00;;;;;;;-2.20;64.76;99790.66;5064185;28;20245;-64
2021/12/21 05:57:49;;;;;;;20.37;8.37;;;;;;;-2.17;66.36;99807.00;5051328;28;20239;-64
2021/12/21 06:00:20;;;;;;;13.07;7.60;;;;;;;-2.09;66.05;99811.78;5048391;28;20231;-65
2021/12/21 06:02:47;;;;;;;10.23;7.70;;;;;;;-2.42;66.86;99807.56;5048736;28;20250;-65
2021/12/21 06:05:15;;;;;;;14.17;7.27;;;;;;;-2.80;67.84;99783.59;5048644;28;20239;-64
2021/12/21 06:07:42;;;;;;;16.97;8.03;;;;;;;-2.46;67.28;99808.66;5048415;28;20248;-65
2021/12/21 06:10:16;;;;;;;17.53;8.83;;;;;;;-2.88;67.97;99788.41;5048508;28;20231;-64
2021/12/21 06:13:49;;;;;;;18.33;8.37;;;;;;;-3.09;68.17;99772.97;5046236;28;20759;-65
2021/12/21 06:26:12;;;;;;;14.53;7.63;;;;;;;-2.86;67.79;99803.06;5049380;28;20242;-64
2021/12/21 06:28:41;;;;;;;12.67;7.13;;;;;;;-2.67;67.78;99815.91;5045854;28;21620;-64
2021/12/21 06:31:08;;;;;;;12.47;7.57;;;;;;;-3.01;68.08;99785.63;5048088;28;20242;-64
2021/12/21 06:33:35;;;;;;;12.90;7.70;;;;;;;-2.77;68.43;99815.63;5048306;28;20244;-64
2021/12/21 06:36:04;;;;;;;13.97;8.07;;;;;;;-3.63;70.08;99780.22;5048424;28;20231;-64
2021/12/21 06:38:31;;;;;;;10.87;7.10;;;;;;;-2.67;67.63;99815.91;5048461;28;20617;-64
2021/12/21 06:40:58;;;;;;;15.83;7.80;;;;;;;-3.01;68.81;99809.94;5047253;28;20232;-64
2021/12/21 06:43:25;;;;;;;13.57;8.10;;;;;;;-3.08;69.21;99816.44;5047477;28;20691;-64
2021/12/21 06:46:04;;;;;;;17.00;8.47;;;;;;;-3.09;69.26;99817.34;5048069;28;20699;-64
2021/12/21 06:51:28;;;;;;;13.97;8.40;;;;;;;-2.97;68.79;99826.28;5048562;28;20260;-64
2021/12/21 06:53:57;;;;;;;12.67;8.60;;;;;;;-2.90;67.76;99818.03;5046213;28;20231;-65
2021/12/21 06:56:26;;;;;;;15.13;7.87;;;;;;;-3.09;68.40;99815.59;5047812;28;20228;-64
2021/12/21 06:58:55;;;;;;;13.70;8.07;;;;;;;-2.93;68.28;99826.03;5047687;28;20231;-64
2021/12/21 07:01:25;;;;;;;17.07;8.30;;;;;;;-2.77;68.33;99839.13;5047388;28;20719;-64
2021/12/21 07:03:53;;;;;;;13.70;8.37;;;;;;;-3.23;69.00;99825.91;5047503;28;20231;-64
2021/12/21 07:06:21;;;;;;;13.33;8.07;;;;;;;-3.19;69.31;99824.84;5045582;28;20333;-64
2021/12/21 07:09:05;;;;;;;12.83;7.67;;;;;;;-2.85;67.71;99830.00;5045991;28;20256;-64
2021/12/21 07:19:36;;;;;;;21.70;9.13;;;;;;;-3.01;67.94;99827.38;5047908;28;20238;-64
2021/12/21 07:22:05;;;;;;;17.13;8.07;;;;;;;-2.21;66.23;99857.75;5046969;28;20224;-65
2021/12/21 07:24:32;;;;;;;15.97;8.93;;;;;;;-2.30;66.00;99853.03;5045191;28;20339;-65
2021/12/21 07:26:59;;;;;;;11.67;7.80;;;;;;;-2.77;67.36;99833.03;5047341;28;20232;-65
2021/12/21 07:29:26;;;;;;;13.63;8.10;;;;;;;-2.59;66.53;99839.84;5046734;28;20246;-64
2021/12/21 07:31:53;;;;;;;11.97;7.90;;;;;;;-2.86;67.24;99828.31;5048461;28;20228;-65
2021/12/21 07:34:20;;;;;;;9.60;7.10;;;;;;;-2.59;66.67;99841.63;5052963;28;20225;-64
2021/12/21 07:36:47;;;;;;;13.03;7.97;;;;;;;-2.49;65.70;99837.56;5060960;28;20230;-65
2021/12/21 07:39:17;;;;;;;16.20;8.30;;;;;;;-2.38;65.79;99847.41;5067302;28;20716;-64
2021/12/21 07:41:57;;;;;;;14.60;7.67;;;;;;;-2.52;65.64;99838.56;5027042;28;20237;-64
2021/12/21 07:44:24;;;;;;;12.97;7.83;;;;;;;-2.36;65.93;99848.19;5029150;28;20242;-65
2021/12/21 07:46:51;;;;;;;10.60;7.73;;;;;;;-1.70;64.56;99870.53;5047713;28;20231;-65
2021/12/21 07:49:18;;;;;;;14.10;8.07;;;;;;;-2.63;65.93;99829.66;5051586;28;20290;-65
2021/12/21 07:51:45;;;;;;;15.33;9.40;;;;;;;-2.06;65.82;99863.03;5065122;28;20237;-65
2021/12/21 07:54:12;;;;;;;12.13;8.13;;;;;;;-1.84;64.71;99868.72;5070574;28;20248;-65
2021/12/21 07:56:39;;;;;;;15.03;8.30;;;;;;;-1.96;65.09;99848.50;5051084;28;20232;-65
2021/12/21 07:59:06;;;;;;;15.57;8.50;;;;;;;-2.59;66.15;99820.72;5051102;28;20239;-65
2021/12/21 08:01:33;;;;;;;11.97;8.27;;;;;;;-1.80;64.75;99857.13;5051726;28;20228;-65
2021/12/21 08:04:00;;;;;;;14.67;8.70;;;;;;;-1.86;65.51;99857.50;5061152;28;20630;-65
2021/12/21 08:06:31;;;;;;;14.57;8.63;;;;;;;-2.31;66.61;99835.69;5069858;28;20651;-65
2021/12/21 08:08:59;;;;;;;11.60;8.20;;;;;;;-2.02;66.16;99841.88;5069732;28;20262;-65
2021/12/21 08:14:04;;;;;;;12.13;7.87;;;;;;;-1.95;66.46;99852.81;5071070;28;20233;-65
2021/12/21 08:16:32;;;;;;;13.63;8.23;;;;;;;-1.80;65.65;99859.75;5070493;28;20235;-65
2021/12/21 08:18:59;;;;;;;13.67;7.83;;;;;;;-1.87;65.82;99852.38;5070788;28;20236;-65
2021/12/21 08:21:26;;;;;;;12.43;8.10;;;;;;;-1.83;65.67;99846.84;5067567;28;20605;-64
2021/12/21 08:23:53;;;;;;;14.53;7.60;;;;;;;-2.36;67.23;99833.34;5059870;28;20230;-65
2021/12/21 08:26:20;;;;;;;11.50;7.40;;;;;;;-1.64;65.63;99851.00;5056195;28;20429;-64
2021/12/21 08:28:47;;;;;;;13.27;8.37;;;;;;;-1.51;65.27;99849.34;5051563;28;20246;-65
2021/12/21 08:31:14;;;;;;;11.57;8.50;;;;;;;-2.15;67.37;99848.72;5053030;28;20236;-65
2021/12/21 08:33:42;;;;;;;15.37;7.93;;;;;;;-1.16;65.27;99869.09;5069970;28;20242;-65
2021/12/21 08:36:10;;;;;;;11.73;7.97;;;;;;;-1.43;65.59;99857.56;5062695;28;20584;-65
2021/12/21 08:38:40;;;;;;;16.13;8.13;;;;;;;-1.44;65.48;99861.13;5049722;28;20451;-65
2021/12/21 08:41:07;;;;;;;15.33;8.40;;;;;;;-1.35;65.63;99856.25;5048979;28;20227;-65
2021/12/21 08:43:35;;;;;;;9.47;7.53;;;;;;;-1.12;64.48;99862.72;5050843;28;20230;-65
2021/12/21 08:46:03;;;;;;;12.23;7.73;;;;;;;-1.43;65.96;99854.97;5068780;28;20281;-65
2021/12/21 08:48:31;;;;;;;15.50;8.13;;;;;;;-1.51;64.79;99838.03;5069980;28;20584;-65
2021/12/21 08:51:00;;;;;;;15.30;7.90;;;;;;;-1.47;65.46;99858.72;5069931;28;20234;-65
2021/12/21 08:53:27;;;;;;;15.93;7.87;;;;;;;-1.63;65.77;99858.75;5070745;28;20223;-65
2021/12/21 08:55:55;;;;;;;13.30;8.20;;;;;;;-1.08;64.28;99870.31;5066822;28;20233;-65
2021/12/21 08:58:22;;;;;;;12.53;7.27;;;;;;;-1.09;64.41;99873.84;5050341;28;20226;-65
2021/12/21 09:00:50;;;;;;;12.07;7.93;;;;;;;-1.20;65.01;99862.34;5050686;28;20232;-65
2021/12/21 09:03:18;;;;;;;11.17;7.50;;;;;;;-1.13;64.76;99861.91;5070310;28;20227;-65
2021/12/21 09:05:46;;;;;;;14.80;7.90;;;;;;;-0.73;63.80;99869.94;5067891;28;20231;-65
2021/12/21 09:08:13;;;;;;;11.60;7.70;;;;;;;-1.12;65.12;99857.50;5069290;28;20224;-64
2021/12/21 09:10:40;;;;;;;10.30;7.60;;;;;;;-0.98;64.67;99860.16;5070042;28;20227;-65
2021/12/21 09:13:09;;;;;;;11.93;7.37;;;;;;;-0.86;63.88;99848.06;5068718;28;20603;-65
2021/12/21 09:15:37;;;;;;;13.30;8.23;;;;;;;-1.15;64.91;99853.31;5068114;28;20229;-65
2021/12/21 09:18:06;;;;;;;12.47;8.63;;;;;;;-1.07;65.26;99856.25;5070336;28;20220;-65
2021/12/21 09:20:34;;;;;;;14.40;8.23;;;;;;;-0.78;64.54;99864.13;5061451;28;20223;-65
2021/12/21 09:23:02;;;;;;;13.47;8.03;;;;;;;-1.34;66.93;99853.56;5078970;22;20595;-67
2021/12/21 09:25:30;;;;;;;11.60;7.53;;;;;;;-1.34;66.11;99845.72;5067419;28;20229;-69
2021/12/21 09:27:58;;;;;;;14.47;8.27;;;;;;;-1.00;65.52;99862.00;5070165;28;20694;-70
2021/12/21 09:30:28;;;;;;;10.87;7.83;;;;;;;-0.74;64.97;99857.78;5051620;28;20228;-67
2021/12/21 09:32:55;;;;;;;11.73;7.27;;;;;;;-0.88;64.80;99849.91;5049562;28;20232;-68
2021/12/21 09:35:23;;;;;;;13.07;7.73;;;;;;;-1.29;65.84;99842.81;5049367;28;20345;-70
2021/12/21 09:37:51;;;;;;;11.33;7.33;;;;;;;-1.02;66.11;99853.41;5049251;28;20325;-69
2021/12/21 09:40:23;;;;;;;11.57;7.67;;;;;;;-0.53;64.69;99865.22;5048815;28;20227;-69
2021/12/21 09:42:51;;;;;;;10.27;7.90;;;;;;;-0.97;65.33;99856.56;5049429;28;20232;-69
2021/12/21 09:45:18;;;;;;;12.37;8.33;;;;;;;-0.77;65.11;99860.56;5049236;28;20242;-68
2021/12/21 09:47:45;;;;;;;13.30;7.70;;;;;;;-0.70;65.42;99853.19;5049398;28;20266;-69
2021/12/21 09:50:15;;;;;;;11.50;8.30;;;;;;;-0.66;65.49;99867.75;5048731;28;20246;-67
2021/12/21 09:52:42;;;;;;;11.13;7.97;;;;;;;-0.70;66.33;99861.88;5048879;28;20237;-69
2021/12/21 09:55:13;;;;;;;11.40;7.90;;;;;;;-0.07;64.03;99878.00;5058365;28;20713;-69
2021/12/21 09:57:41;;;;;;;10.10;7.83;;;;;;;-0.45;64.88;99864.72;5068078;28;20234;-69
2021/12/21 10:00:13;;;;;;;10.40;7.53;;;;;;;-0.36;64.07;99867.56;5068508;28;20726;-70
2021/12/21 10:02:40;;;;;;;9.97;8.10;;;;;;;-0.82;65.23;99851.34;5067268;28;20832;-69
2021/12/21 10:05:18;;;;;;;14.30;8.07;;;;;;;-1.25;66.52;99853.03;5067883;28;20691;-69
2021/12/21 10:08:00;;;;;;;11.87;7.87;;;;;;;-0.67;65.65;99864.28;5068146;28;20231;-69
2021/12/21 10:10:31;;;;;;;12.07;7.57;;;;;;;-0.96;65.68;99837.31;5067669;28;20224;-70
2021/12/21 10:13:08;;;;;;;11.30;7.63;;;;;;;-0.76;65.05;99838.69;5063580;28;20702;-66
2021/12/21 10:15:42;;;;;;;15.20;8.33;;;;;;;-0.77;66.01;99852.72;5068002;28;20227;-69
2021/12/21 10:18:09;;;;;;;13.47;7.90;;;;;;;-0.53;64.65;99842.44;5068106;28;20223;-69
2021/12/21 10:20:44;;;;;;;13.57;8.27;;;;;;;-0.72;65.24;99841.97;5062466;28;20717;-70
2021/12/21 10:23:18;;;;;;;12.57;7.90;;;;;;;-0.49;65.02;99848.38;5063664;28;20229;-69
2021/12/21 10:25:51;;;;;;;8.47;7.27;;;;;;;-0.21;64.40;99843.94;5048751;28;20872;-69
2021/12/21 10:28:35;;;;;;;11.53;6.90;;;;;;;-0.57;65.13;99827.88;5055252;28;20229;-68
2021/12/21 10:31:11;;;;;;;9.77;7.33;;;;;;;-0.48;64.69;99823.81;5068445;28;20787;-68
2021/12/21 10:33:43;;;;;;;10.10;7.40;;;;;;;-0.36;64.82;99836.13;5069034;28;20239;-69
2021/12/21 10:36:11;;;;;;;13.67;7.67;;;;;;;-0.29;64.84;99833.94;5067557;28;20238;-69
2021/12/21 10:38:52;;;;;;;10.70;7.93;;;;;;;-0.20;64.10;99828.13;5067795;28;20748;-69
2021/12/21 10:41:20;;;;;;;8.67;6.83;;;;;;;-1.19;65.53;99791.59;5068260;28;20233;-68
2021/12/21 10:44:15;;;;;;;10.30;6.77;;;;;;;-0.54;65.73;99826.81;5068399;28;20753;-68
2021/12/21 10:46:48;;;;;;;11.27;6.70;;;;;;;-0.36;64.78;99827.44;5049422;28;20614;-68
2021/12/21 10:49:32;;;;;;;13.43;7.23;;;;;;;-0.18;64.28;99817.53;5048588;28;20240;-69
2021/12/21 10:52:09;;;;;;;14.27;6.60;;;;;;;0.77;63.23;99845.19;5048177;28;20737;-69
2021/12/21 10:54:47;;;;;;;10.30;7.00;;;;;;;-0.14;64.63;99809.38;5047412;28;20250;-70
2021/12/21 10:57:18;;;;;;;9.47;6.63;;;;;;;0.30;63.32;99828.28;5060073;28;20246;-68
2021/12/21 10:59:48;;;;;;;10.30;6.60;;;;;;;0.68;62.39;99821.38;5068001;28;20716;-70
2021/12/21 11:03:52;;;;;;;12.90;6.13;;;;;;;-0.59;65.85;99779.97;5065659;28;20587;-67
2021/12/21 11:06:27;;;;;;;11.40;6.53;;;;;;;-0.05;63.81;99760.72;5065156;28;20229;-67
2021/12/21 11:08:55;;;;;;;11.23;6.87;;;;;;;-0.08;63.23;99741.72;5065064;28;20227;-67
2021/12/21 11:11:48;;;;;;;8.53;6.27;;;;;;;0.10;64.18;99757.97;5064799;28;20224;-67
2021/12/21 11:14:19;;;;;;;10.23;5.60;;;;;;;-0.04;63.80;99753.69;5063945;28;20220;-67
2021/12/21 11:16:47;;;;;;;10.40;6.50;;;;;;;0.33;62.47;99772.16;5065129;28;20592;-67
2021/12/21 11:19:17;;;;;;;8.23;6.20;;;;;;;-0.28;64.33;99756.16;5065306;28;20216;-66
2021/12/21 11:21:46;;;;;;;7.77;5.60;;;;;;;0.11;63.45;99765.75;5063143;28;20242;-67
2021/12/21 11:24:17;;;;;;;8.30;6.50;;;;;;;-0.50;63.15;99739.22;5064046;28;20229;-67
2021/12/21 11:26:47;;;;;;;10.17;6.27;;;;;;;0.26;63.09;99769.94;5065432;28;20254;-67
2021/12/21 11:29:17;;;;;;;9.20;6.00;;;;;;;-0.05;62.75;99744.13;5065008;28;20238;-67
2021/12/21 11:31:49;;;;;;;11.07;6.27;;;;;;;0.58;61.86;99766.88;5063768;28;20241;-67
2021/12/21 11:34:20;;;;;;;7.70;5.97;;;;;;;-0.52;64.33;99741.94;5064585;28;20220;-67
2021/12/21 11:39:39;;;;;;;8.87;6.53;;;;;;;0.15;62.61;99737.50;5064750;28;20785;-68
2021/12/21 11:42:09;;;;;;;12.20;8.13;;;;;;;0.26;63.14;99740.25;5064396;28;20767;-66
2021/12/21 11:45:01;;;;;;;9.00;6.00;;;;;;;0.47;62.64;99737.09;5063784;28;20235;-67
2021/12/21 11:47:39;;;;;;;11.13;6.33;;;;;;;-0.26;62.69;99707.91;5070816;28;20225;-67
2021/12/21 11:50:09;;;;;;;10.93;6.20;;;;;;;0.24;62.77;99732.47;5065155;28;20234;-67
2021/12/21 11:53:07;;;;;;;9.93;6.40;;;;;;;0.00;62.26;99729.78;5052415;28;20243;-67
2021/12/21 11:55:38;;;;;;;7.97;5.73;;;;;;;0.10;63.03;99731.75;5044238;28;20230;-66
2021/12/21 11:58:17;;;;;;;9.57;6.23;;;;;;;0.44;61.70;99730.28;5044132;28;20663;-67
2021/12/21 12:01:12;;;;;;;10.90;6.23;;;;;;;0.27;62.69;99739.31;5042760;28;20813;-67
2021/12/21 12:03:44;;;;;;;8.27;6.20;;;;;;;1.02;60.85;99748.94;5060294;28;20229;-67
2021/12/21 12:06:15;;;;;;;9.87;6.53;;;;;;;0.04;62.01;99717.28;5078304;28;20239;-67
2021/12/21 12:08:52;;;;;;;11.40;6.30;;;;;;;0.78;62.28;99748.91;5054002;28;20699;-67
2021/12/21 12:11:25;;;;;;;11.00;6.03;;;;;;;1.07;60.92;99759.13;5052244;28;20259;-67
2021/12/21 12:14:30;;;;;;;10.37;6.30;;;;;;;0.94;61.54;99753.88;5036094;28;20241;-67
2021/12/21 12:17:05;;;;;;;9.50;7.27;;;;;;;1.02;61.49;99760.25;5027971;28;20723;-67
2021/12/21 12:19:35;;;;;;;9.30;6.63;;;;;;;0.96;60.32;99747.59;5038279;28;20240;-67
2021/12/21 12:22:07;;;;;;;8.10;6.27;;;;;;;0.73;61.02;99741.34;5025370;28;20245;-67
2021/12/21 12:24:40;;;;;;;10.43;6.27;;;;;;;0.44;62.18;99727.66;5043197;28;20481;-67
2021/12/21 12:27:10;;;;;;;10.73;6.20;;;;;;;0.82;61.00;99738.09;5031018;28;20240;-67
2021/12/21 12:29:56;;;;;;;11.50;6.30;;;;;;;1.02;61.80;99760.25;5030573;28;20229;-67
2021/12/21 12:32:37;;;;;;;9.87;6.47;;;;;;;1.00;61.17;99750.84;5030393;28;20226;-67
2021/12/21 12:35:11;;;;;;;10.73;6.70;;;;;;;0.90;61.26;99741.94;5030401;28;20618;-67
2021/12/21 12:37:50;;;;;;;10.03;5.53;;;;;;;0.74;61.04;99735.16;5030650;28;20235;-67
2021/12/21 12:40:25;;;;;;;13.10;7.20;;;;;;;1.31;59.93;99738.91;5029825;28;20258;-67
2021/12/21 12:42:59;;;;;;;10.83;6.33;;;;;;;0.49;61.97;99725.53;5030730;28;20238;-67
2021/12/21 12:45:37;;;;;;;8.17;5.67;;;;;;;0.72;61.29;99731.78;5029797;28;20226;-68
2021/12/21 12:48:20;;;;;;;10.07;6.73;;;;;;;0.91;60.72;99723.44;5029565;28;20703;-67
2021/12/21 12:50:48;;;;;;;8.27;6.37;;;;;;;0.49;62.72;99712.41;5029724;28;20621;-67
2021/12/21 12:53:16;;;;;;;8.50;6.10;;;;;;;0.34;62.37;99714.31;5030517;28;20236;-67